Terminal Aerodrome Forecast
Issued by NWS Central Illinois

Home | Current Version | Previous Version | Text Only | Print | Product List | Glossary On
Versions: 1 2 3 4 5 6 7 8 9 10 11 12 13
000
FTUS43 KILX 300529
TAFSPI
TAF
KSPI 300529Z 3006/3106 00000KT P6SM SCT040 OVC050
     FM300900 18004KT 4SM BR SCT025 OVC045
     FM301400 20004KT P6SM BKN035
     FM310100 19005KT P6SM SCT250=

USA.gov is the U.S. government's official web portal to all federal, state and local government web resources and services.